createdAt,value
2024-01-18T00:00:12.816Z,96765.28
2024-01-18T00:02:40.436Z,96765.75
2024-01-18T00:05:08.166Z,96765.75
2024-01-18T00:07:34.869Z,96766.25
2024-01-18T00:10:01.809Z,96767.66
2024-01-18T00:12:28.526Z,96778.03
2024-01-18T00:14:55.190Z,96776.31
2024-01-18T00:17:21.711Z,96778.06
2024-01-18T00:19:48.470Z,96774.75
2024-01-18T00:22:15.087Z,96780.56
2024-01-18T00:24:41.641Z,96788.28
2024-01-18T00:27:08.286Z,96790.94
2024-01-18T00:29:34.872Z,96789.19
2024-01-18T00:32:01.525Z,96798.44
2024-01-18T00:34:28.345Z,96791.88
2024-01-18T00:36:54.958Z,96797.69
2024-01-18T00:39:22.494Z,96801.78
2024-01-18T00:41:49.495Z,96801.66
2024-01-18T00:44:16.054Z,96799.28
2024-01-18T00:46:42.681Z,96807.75
2024-01-18T00:49:09.410Z,96805.25
2024-01-18T00:51:36.056Z,96812.81
2024-01-18T00:54:03.648Z,96807.63
2024-01-18T00:56:30.772Z,96812.06
2024-01-18T00:58:57.449Z,96807.94
2024-01-18T01:01:24.170Z,96812.34
2024-01-18T01:03:50.753Z,96809.84
2024-01-18T01:06:17.366Z,96804.03
2024-01-18T01:08:44.226Z,96805.59
2024-01-18T01:11:10.880Z,96807.81
2024-01-18T01:13:37.571Z,96812.03
2024-01-18T01:16:04.575Z,96810.94
2024-01-18T01:18:31.461Z,96807.34
2024-01-18T01:20:58.162Z,96798.06
2024-01-18T01:23:24.786Z,96802.47
2024-01-18T01:25:51.400Z,96809.22
2024-01-18T01:28:17.956Z,96807.97
2024-01-18T01:30:44.696Z,96808.91
2024-01-18T01:33:11.631Z,96812.53
2024-01-18T01:35:38.245Z,96814.25
2024-01-18T01:38:05.271Z,96818.50
2024-01-18T01:40:31.971Z,96819.75
2024-01-18T01:42:58.631Z,96822.59
2024-01-18T01:45:25.474Z,96831.66
2024-01-18T01:47:52.330Z,96834.84
2024-01-18T01:50:19.177Z,96831.66
2024-01-18T01:52:47.228Z,96842.84
2024-01-18T01:55:15.167Z,96833.25
2024-01-18T01:57:45.634Z,96828.38
2024-01-18T02:00:14.406Z,96827.25
2024-01-18T02:02:42.428Z,96827.25
2024-01-18T02:05:10.229Z,96825.69
2024-01-18T02:07:40.078Z,96817.03
2024-01-18T02:10:08.734Z,96813.72
2024-01-18T02:12:35.816Z,96806.50
2024-01-18T02:15:03.340Z,96811.22
2024-01-18T02:17:30.212Z,96814.97
2024-01-18T02:19:57.305Z,96808.38
2024-01-18T02:22:27.324Z,96820.25
2024-01-18T02:24:57.807Z,96824.03
2024-01-18T02:27:24.701Z,96819.31
2024-01-18T02:29:52.687Z,96821.50
2024-01-18T02:32:19.294Z,96797.19
2024-01-18T02:34:46.124Z,96803.13
2024-01-18T02:37:12.911Z,96810.84
2024-01-18T02:39:39.803Z,96810.50
2024-01-18T02:42:07.247Z,96809.22
2024-01-18T02:44:34.101Z,96812.97
2024-01-18T02:47:00.673Z,96814.53
2024-01-18T02:49:27.304Z,96814.25
2024-01-18T02:51:53.960Z,96809.56
2024-01-18T02:54:20.542Z,96811.44
2024-01-18T02:56:47.096Z,96814.53
2024-01-18T02:59:13.609Z,96829.13
2024-01-18T03:01:40.097Z,96841.19
2024-01-18T03:04:06.821Z,96844.31
2024-01-18T03:06:33.437Z,96841.50
2024-01-18T03:09:00.021Z,96839.56
2024-01-18T03:11:26.712Z,96850.22
2024-01-18T03:13:53.638Z,96873.13
2024-01-18T03:16:20.349Z,96865.88
2024-01-18T03:18:47.888Z,96848.50
2024-01-18T03:21:15.011Z,96852.69
2024-01-18T03:23:41.765Z,96858.97
2024-01-18T03:26:09.486Z,96847.69
2024-01-18T03:28:36.059Z,96859.94
2024-01-18T03:31:02.626Z,96859.78
2024-01-18T03:33:29.260Z,96845.50
2024-01-18T03:35:56.385Z,96855.44
2024-01-18T03:38:22.961Z,96854.00
2024-01-18T03:40:49.536Z,96853.03
2024-01-18T03:43:16.200Z,96842.84
2024-01-18T03:45:43.033Z,96852.59
2024-01-18T03:48:09.767Z,96846.66
2024-01-18T03:50:36.419Z,96843.47
2024-01-18T03:53:02.934Z,96847.22
2024-01-18T03:55:29.430Z,96850.03
2024-01-18T03:57:56.054Z,96846.22
2024-01-18T04:00:22.712Z,96844.81
2024-01-18T04:02:49.236Z,96851.06
2024-01-18T04:05:15.820Z,96845.25
2024-01-18T04:07:42.394Z,96847.13
2024-01-18T04:10:09.352Z,96854.03
2024-01-18T04:12:36.343Z,96856.09
2024-01-18T04:15:03.236Z,96855.00
2024-01-18T04:17:29.806Z,96858.63
2024-01-18T04:19:56.376Z,96858.78
2024-01-18T04:22:26.057Z,96857.88
2024-01-18T04:24:52.905Z,96843.41
2024-01-18T04:27:19.449Z,96852.50
2024-01-18T04:29:46.039Z,96857.69
2024-01-18T04:32:12.549Z,96857.69
2024-01-18T04:34:39.082Z,96871.59
2024-01-18T04:37:05.854Z,96870.94
2024-01-18T04:39:32.426Z,96873.72
2024-01-18T04:41:59.070Z,96870.69
2024-01-18T04:44:25.634Z,96875.25
2024-01-18T04:46:52.516Z,96868.34
2024-01-18T04:49:19.068Z,96883.25
2024-01-18T04:51:45.675Z,96881.28
2024-01-18T04:54:12.289Z,96880.66
2024-01-18T04:56:39.158Z,96890.03
2024-01-18T04:59:06.409Z,96888.81
2024-01-18T05:01:38.559Z,96891.00
2024-01-18T05:04:05.386Z,96882.38
2024-01-18T05:06:33.094Z,96898.84
2024-01-18T05:08:59.735Z,96891.34
2024-01-18T05:11:26.710Z,96895.72
2024-01-18T05:13:54.187Z,96887.38
2024-01-18T05:16:21.019Z,96904.44
2024-01-18T05:18:47.560Z,96911.94
2024-01-18T05:21:14.192Z,96906.63
2024-01-18T05:23:40.777Z,96901.50
2024-01-18T05:26:10.050Z,96922.56
2024-01-18T05:28:36.638Z,96915.19
2024-01-18T05:31:03.248Z,96915.19
2024-01-18T05:33:29.874Z,96915.19
2024-01-18T05:35:56.416Z,96915.78
2024-01-18T05:38:22.940Z,96925.91
2024-01-18T05:40:49.426Z,96931.84
2024-01-18T05:43:16.021Z,96931.25
2024-01-18T05:45:42.624Z,96934.94
2024-01-18T05:48:09.289Z,96945.00
2024-01-18T05:50:35.894Z,96939.69
2024-01-18T05:53:02.408Z,96945.97
2024-01-18T05:55:28.981Z,96953.38
2024-01-18T05:57:55.622Z,96956.00
2024-01-18T06:00:22.309Z,96947.09
2024-01-18T06:02:48.822Z,96951.31
2024-01-18T06:05:15.532Z,96951.53
2024-01-18T06:07:42.051Z,96944.75
2024-01-18T06:10:09.075Z,96950.47
2024-01-18T06:12:35.611Z,96951.03
2024-01-18T06:15:02.934Z,96964.03
2024-01-18T06:17:29.574Z,96969.50
2024-01-18T06:19:56.872Z,96972.84
2024-01-18T06:22:23.449Z,96984.31
2024-01-18T06:24:50.025Z,96990.38
2024-01-18T06:27:16.607Z,97006.53
2024-01-18T06:29:43.154Z,97013.13
2024-01-18T06:32:09.734Z,97017.03
2024-01-18T06:34:36.385Z,97019.03
2024-01-18T06:37:02.964Z,97025.25
2024-01-18T06:39:29.650Z,97025.44
2024-01-18T06:41:56.187Z,97036.38
2024-01-18T06:44:22.752Z,97033.88
2024-01-18T06:46:49.780Z,97040.28
2024-01-18T06:49:16.449Z,97042.06
2024-01-18T06:51:43.499Z,97044.59
2024-01-18T06:54:11.014Z,97058.19
2024-01-18T06:56:38.689Z,97046.13
2024-01-18T06:59:06.631Z,97046.00
2024-01-18T07:01:34.537Z,97058.59
2024-01-18T07:04:01.217Z,97065.06
2024-01-18T07:06:27.804Z,97056.03
2024-01-18T07:08:55.094Z,97065.00
2024-01-18T07:11:21.556Z,97073.97
2024-01-18T07:13:48.103Z,97068.63
2024-01-18T07:16:14.963Z,97081.59
2024-01-18T07:18:41.501Z,97092.03
2024-01-18T07:21:08.166Z,97111.13
2024-01-18T07:23:34.698Z,97110.94
2024-01-18T07:26:01.272Z,97117.25
2024-01-18T07:28:28.235Z,97119.91
2024-01-18T07:30:54.837Z,97128.31
2024-01-18T07:33:22.284Z,97140.00
2024-01-18T07:35:49.174Z,97142.91
2024-01-18T07:38:15.732Z,97154.88
2024-01-18T07:40:42.394Z,97158.84
2024-01-18T07:43:08.983Z,97162.22
2024-01-18T07:45:35.575Z,97169.06
2024-01-18T07:48:02.282Z,97171.50
2024-01-18T07:50:35.124Z,97170.25
2024-01-18T07:53:04.006Z,97184.06
2024-01-18T07:55:31.000Z,97186.22
2024-01-18T07:57:57.924Z,97190.69
2024-01-18T08:00:25.311Z,97207.94
2024-01-18T08:02:52.146Z,97206.13
2024-01-18T08:05:18.658Z,97213.81
2024-01-18T08:07:45.293Z,97227.41
2024-01-18T08:10:11.856Z,97229.56
2024-01-18T08:12:38.817Z,97238.81
2024-01-18T08:15:06.578Z,97240.19
2024-01-18T08:17:33.769Z,97241.97
2024-01-18T08:20:00.566Z,97248.19
2024-01-18T08:22:27.177Z,97255.50
2024-01-18T08:24:53.733Z,97261.41
2024-01-18T08:27:20.422Z,97259.78
2024-01-18T08:29:48.514Z,97268.03
2024-01-18T08:32:15.141Z,97280.53
2024-01-18T08:34:44.759Z,97282.66
2024-01-18T08:37:12.639Z,97286.50
2024-01-18T08:39:39.982Z,97288.41
2024-01-18T08:42:06.984Z,97287.31
2024-01-18T08:44:33.579Z,97297.97
2024-01-18T08:47:00.521Z,97301.34
2024-01-18T08:49:27.289Z,97308.69
2024-01-18T08:51:54.295Z,97322.00
2024-01-18T08:54:24.179Z,97327.81
2024-01-18T08:56:50.706Z,97332.13
2024-01-18T08:59:17.264Z,97344.00
2024-01-18T09:01:44.080Z,97348.53
2024-01-18T09:04:10.977Z,97351.50
2024-01-18T09:06:39.051Z,97344.59
2024-01-18T09:09:10.781Z,97363.72
2024-01-18T09:11:38.391Z,97368.47
2024-01-18T09:14:05.377Z,97375.03
2024-01-18T09:16:32.505Z,97384.09
2024-01-18T09:19:10.495Z,97380.63
2024-01-18T09:21:46.237Z,97388.63
2024-01-18T09:24:13.871Z,97404.16
2024-01-18T09:26:41.148Z,97412.50
2024-01-18T09:29:07.865Z,97420.66
2024-01-18T09:31:41.298Z,97426.44
2024-01-18T09:34:12.051Z,97434.63
2024-01-18T09:36:38.767Z,97439.38
2024-01-18T09:39:26.014Z,97445.78
2024-01-18T09:42:00.063Z,97447.34
2024-01-18T09:44:28.302Z,97454.25
2024-01-18T09:46:55.327Z,97471.06
2024-01-18T09:49:22.098Z,97480.84
2024-01-18T09:51:48.983Z,97489.50
2024-01-18T09:54:16.258Z,97490.16
2024-01-18T09:56:46.248Z,97498.28
2024-01-18T09:59:19.153Z,97499.50
2024-01-18T10:01:46.566Z,97504.72
2024-01-18T10:04:14.784Z,97514.22
2024-01-18T10:06:42.471Z,97527.47
2024-01-18T10:09:15.818Z,97522.88
2024-01-18T10:11:45.332Z,97528.13
2024-01-18T10:14:11.899Z,97541.19
2024-01-18T10:16:40.491Z,97548.16
2024-01-18T10:19:08.703Z,97554.19
2024-01-18T10:21:36.310Z,97558.19
2024-01-18T10:24:07.331Z,97558.41
2024-01-18T10:26:34.380Z,97571.00
2024-01-18T10:29:03.298Z,97584.13
2024-01-18T10:31:32.634Z,97590.09
2024-01-18T10:33:59.417Z,97591.13
2024-01-18T10:36:27.120Z,97606.25
2024-01-18T10:38:53.724Z,97604.88
2024-01-18T10:41:20.658Z,97612.03
2024-01-18T10:43:49.079Z,97619.94
2024-01-18T10:46:16.214Z,97616.41
2024-01-18T10:48:48.119Z,97628.44
2024-01-18T10:51:15.250Z,97626.19
2024-01-18T10:53:43.076Z,97634.94
2024-01-18T10:56:09.931Z,97634.97
2024-01-18T10:58:36.797Z,97638.00
2024-01-18T11:01:05.201Z,97641.75
2024-01-18T11:03:32.771Z,97642.16
2024-01-18T11:06:01.884Z,97648.00
2024-01-18T11:08:29.933Z,97663.19
2024-01-18T11:10:56.528Z,97658.50
2024-01-18T11:13:23.615Z,97663.34
2024-01-18T11:15:54.426Z,97668.91
2024-01-18T11:18:23.041Z,97680.88
2024-01-18T11:20:58.721Z,97680.38
2024-01-18T11:23:38.866Z,97695.81
2024-01-18T11:26:18.809Z,97705.56
2024-01-18T11:28:45.690Z,97717.97
2024-01-18T11:31:12.451Z,97727.03
2024-01-18T11:33:39.276Z,97718.84
2024-01-18T11:36:09.687Z,97726.53
2024-01-18T11:38:44.975Z,97741.34
2024-01-18T11:41:21.123Z,97746.09
2024-01-18T11:43:57.503Z,97752.69
2024-01-18T11:46:37.107Z,97766.97
2024-01-18T11:49:03.799Z,97767.09
2024-01-18T11:51:30.890Z,97781.69
2024-01-18T11:54:00.135Z,97781.84
2024-01-18T11:56:28.060Z,97797.50
2024-01-18T11:59:02.274Z,97797.19
2024-01-18T12:01:30.932Z,97803.00
2024-01-18T12:03:58.039Z,97809.91
2024-01-18T12:06:28.193Z,97812.28
2024-01-18T12:08:55.457Z,97822.19
2024-01-18T12:11:22.033Z,97818.84
2024-01-18T12:13:48.632Z,97810.75
2024-01-18T12:16:15.141Z,97829.03
2024-01-18T12:18:43.834Z,97838.00
2024-01-18T12:21:11.227Z,97840.44
2024-01-18T12:23:38.252Z,97844.78
2024-01-18T12:26:05.384Z,97842.53
2024-01-18T12:28:32.052Z,97851.41
2024-01-18T12:31:04.905Z,97848.97
2024-01-18T12:33:32.644Z,97851.91
2024-01-18T12:36:02.281Z,97857.25
2024-01-18T12:38:29.662Z,97866.34
2024-01-18T12:40:56.288Z,97868.75
2024-01-18T12:43:22.910Z,97888.97
2024-01-18T12:45:52.975Z,97887.88
2024-01-18T12:48:20.592Z,97888.19
2024-01-18T12:50:47.759Z,97894.97
2024-01-18T12:53:14.945Z,97899.09
2024-01-18T12:55:41.909Z,97901.19
2024-01-18T12:58:13.687Z,97905.53
2024-01-18T13:00:40.535Z,97911.88
2024-01-18T13:03:19.050Z,97930.69
2024-01-18T13:05:46.687Z,97920.56
2024-01-18T13:08:14.525Z,97932.38
2024-01-18T13:10:41.150Z,97935.94
2024-01-18T13:13:11.064Z,97937.28
2024-01-18T13:15:40.597Z,97948.25
2024-01-18T13:18:10.379Z,97950.72
2024-01-18T13:20:43.875Z,97964.50
2024-01-18T13:23:12.134Z,97974.69
2024-01-18T13:25:38.740Z,97972.53
2024-01-18T13:28:05.874Z,97978.44
2024-01-18T13:30:33.199Z,97985.06
2024-01-18T13:33:04.304Z,98001.16
2024-01-18T13:35:33.801Z,98006.84
2024-01-18T13:38:00.870Z,98017.66
2024-01-18T13:40:27.397Z,98035.41
2024-01-18T13:42:53.936Z,98035.25
2024-01-18T13:45:20.500Z,98032.41
2024-01-18T13:47:47.149Z,98049.50
2024-01-18T13:50:13.697Z,98054.13
2024-01-18T13:52:40.341Z,98052.78
2024-01-18T13:55:07.194Z,98054.44
2024-01-18T13:57:33.771Z,98065.16
2024-01-18T14:00:00.361Z,98063.59
2024-01-18T14:02:27.936Z,98082.81
2024-01-18T14:04:54.599Z,98071.13
2024-01-18T14:07:21.303Z,98078.59
2024-01-18T14:09:47.902Z,98080.19
2024-01-18T14:12:14.505Z,98089.75
2024-01-18T14:14:41.084Z,98102.81
2024-01-18T14:17:08.173Z,98104.72
2024-01-18T14:19:35.781Z,98108.72
2024-01-18T14:22:03.153Z,98113.81
2024-01-18T14:24:31.726Z,98127.69
2024-01-18T14:26:58.443Z,98127.09
2024-01-18T14:29:24.957Z,98144.72
2024-01-18T14:31:51.801Z,98139.38
2024-01-18T14:34:18.488Z,98151.69
2024-01-18T14:36:45.144Z,98162.88
2024-01-18T14:39:12.426Z,98169.00
2024-01-18T14:41:38.992Z,98171.94
2024-01-18T14:44:05.849Z,98197.03
2024-01-18T14:46:33.245Z,98193.31
2024-01-18T14:49:00.600Z,98200.28
2024-01-18T14:51:27.305Z,98204.03
2024-01-18T14:53:53.840Z,98204.06
2024-01-18T14:56:20.363Z,98215.81
2024-01-18T14:58:47.586Z,98224.91
2024-01-18T15:01:14.286Z,98238.56
2024-01-18T15:03:44.561Z,98251.09
2024-01-18T15:06:15.800Z,98261.00
2024-01-18T15:08:42.789Z,98260.72
2024-01-18T15:11:09.578Z,98269.53
2024-01-18T15:13:36.104Z,98275.66
2024-01-18T15:16:06.304Z,98284.47
2024-01-18T15:18:35.030Z,98292.22
2024-01-18T15:21:04.737Z,98293.28
2024-01-18T15:23:31.399Z,98296.75
2024-01-18T15:25:57.895Z,98300.19
2024-01-18T15:28:25.469Z,98309.25
2024-01-18T15:30:52.165Z,98313.81
2024-01-18T15:33:18.846Z,98319.13
2024-01-18T15:35:45.516Z,98332.16
2024-01-18T15:38:12.123Z,98325.78
2024-01-18T15:40:38.649Z,98332.69
2024-01-18T15:43:05.282Z,98346.81
2024-01-18T15:45:33.403Z,98358.28
2024-01-18T15:48:00.053Z,98368.94
2024-01-18T15:50:26.996Z,98373.44
2024-01-18T15:52:53.587Z,98383.81
2024-01-18T15:55:20.163Z,98397.44
2024-01-18T15:57:46.754Z,98396.88
2024-01-18T16:00:13.894Z,98404.59
2024-01-18T16:02:40.469Z,98404.53
2024-01-18T16:05:08.240Z,98412.53
2024-01-18T16:07:35.298Z,98424.75
2024-01-18T16:10:04.454Z,98423.69
2024-01-18T16:12:34.083Z,98434.03
2024-01-18T16:15:00.765Z,98446.56
2024-01-18T16:17:27.338Z,98460.41
2024-01-18T16:19:54.028Z,98460.34
2024-01-18T16:22:20.676Z,98458.97
2024-01-18T16:24:47.160Z,98467.47
2024-01-18T16:27:13.774Z,98472.50
2024-01-18T16:29:50.905Z,98487.91
2024-01-18T16:32:25.939Z,98496.94
2024-01-18T16:34:53.167Z,98505.19
2024-01-18T16:37:19.797Z,98522.47
2024-01-18T16:39:49.960Z,98525.34
2024-01-18T16:42:16.923Z,98528.03
2024-01-18T16:44:43.582Z,98536.81
2024-01-18T16:47:10.107Z,98540.50
2024-01-18T16:49:36.827Z,98548.41
2024-01-18T16:52:03.627Z,98559.00
2024-01-18T16:54:30.157Z,98560.84
2024-01-18T16:56:56.706Z,98560.00
2024-01-18T16:59:23.189Z,98566.06
2024-01-18T17:01:49.759Z,98563.66
2024-01-18T17:04:16.396Z,98576.72
2024-01-18T17:06:45.047Z,98579.91
2024-01-18T17:09:11.744Z,98582.81
2024-01-18T17:11:38.539Z,98588.09
2024-01-18T17:14:06.267Z,98592.88
2024-01-18T17:16:32.964Z,98594.97
2024-01-18T17:18:59.567Z,98602.41
2024-01-18T17:21:26.104Z,98602.91
2024-01-18T17:23:52.649Z,98603.91
2024-01-18T17:26:19.228Z,98606.00
2024-01-18T17:28:45.770Z,98613.41
2024-01-18T17:31:15.127Z,98610.22
2024-01-18T17:33:41.846Z,98619.75
2024-01-18T17:36:08.760Z,98625.56
2024-01-18T17:38:35.940Z,98628.22
2024-01-18T17:41:02.616Z,98628.72
2024-01-18T17:43:29.102Z,98631.06
2024-01-18T17:45:55.842Z,98637.97
2024-01-18T17:48:22.498Z,98637.19
2024-01-18T17:50:49.481Z,98651.53
2024-01-18T17:53:16.527Z,98645.91
2024-01-18T17:55:46.634Z,98652.50
2024-01-18T17:58:13.826Z,98656.22
2024-01-18T18:00:42.250Z,98653.81
2024-01-18T18:03:08.935Z,98656.72
2024-01-18T18:05:35.964Z,98668.94
2024-01-18T18:08:02.607Z,98661.53
2024-01-18T18:10:29.976Z,98678.53
2024-01-18T18:12:56.697Z,98688.09
2024-01-18T18:15:23.259Z,98689.41
2024-01-18T18:17:49.895Z,98690.47
2024-01-18T18:20:16.615Z,98699.22
2024-01-18T18:22:43.191Z,98699.22
2024-01-18T18:25:09.687Z,98703.97
2024-01-18T18:27:37.426Z,98713.56
2024-01-18T18:30:05.664Z,98706.63
2024-01-18T18:32:32.374Z,98708.25
2024-01-18T18:34:59.134Z,98715.66
2024-01-18T18:37:29.248Z,98709.22
2024-01-18T18:40:04.263Z,98720.91
2024-01-18T18:42:30.919Z,98718.19
2024-01-18T18:44:57.499Z,98721.63
2024-01-18T18:47:24.139Z,98734.69
2024-01-18T18:49:50.783Z,98734.69
2024-01-18T18:52:17.599Z,98741.06
2024-01-18T18:54:44.175Z,98751.13
2024-01-18T18:57:10.951Z,98752.16
2024-01-18T18:59:43.825Z,98762.78
2024-01-18T19:02:16.084Z,98764.41
2024-01-18T19:04:42.841Z,98766.72
2024-01-18T19:07:09.489Z,98769.13
2024-01-18T19:09:36.041Z,98769.94
2024-01-18T19:12:02.596Z,98779.69
2024-01-18T19:14:29.537Z,98788.41
2024-01-18T19:16:56.097Z,98798.13
2024-01-18T19:19:23.072Z,98806.81
2024-01-18T19:21:49.676Z,98817.59
2024-01-18T19:24:17.386Z,98818.47
2024-01-18T19:26:44.330Z,98832.72
2024-01-18T19:29:10.917Z,98837.91
2024-01-18T19:31:37.480Z,98845.56
2024-01-18T19:34:04.764Z,98850.06
2024-01-18T19:36:31.249Z,98853.28
2024-01-18T19:38:57.771Z,98867.03
2024-01-18T19:41:26.659Z,98873.38
2024-01-18T19:43:53.181Z,98870.97
2024-01-18T19:46:19.671Z,98877.56
2024-01-18T19:48:46.411Z,98885.31
2024-01-18T19:51:13.189Z,98884.91
2024-01-18T19:53:39.783Z,98890.34
2024-01-18T19:56:06.646Z,98896.22
2024-01-18T19:58:33.227Z,98892.63
2024-01-18T20:01:00.857Z,98896.19
2024-01-18T20:03:27.448Z,98899.41
2024-01-18T20:05:54.000Z,98904.94
2024-01-18T20:08:21.310Z,98912.44
2024-01-18T20:10:47.873Z,98920.84
2024-01-18T20:13:14.364Z,98927.22
2024-01-18T20:15:43.112Z,98928.81
2024-01-18T20:18:12.026Z,98937.13
2024-01-18T20:20:39.613Z,98945.09
2024-01-18T20:23:07.616Z,98950.63
2024-01-18T20:25:34.741Z,98959.19
2024-01-18T20:28:02.180Z,98966.09
2024-01-18T20:30:29.984Z,98967.16
2024-01-18T20:32:56.818Z,98985.72
2024-01-18T20:35:23.500Z,98976.16
2024-01-18T20:37:50.275Z,98992.06
2024-01-18T20:40:17.501Z,98983.41
2024-01-18T20:42:45.020Z,98993.44
2024-01-18T20:45:11.554Z,99004.53
2024-01-18T20:47:38.204Z,98996.22
2024-01-18T20:50:05.665Z,98999.69
2024-01-18T20:52:32.212Z,99005.78
2024-01-18T20:54:58.866Z,99005.00
2024-01-18T20:57:25.486Z,99009.84
2024-01-18T20:59:52.240Z,99021.28
2024-01-18T21:02:18.819Z,99011.44
2024-01-18T21:04:45.418Z,99018.38
2024-01-18T21:07:12.146Z,99014.69
2024-01-18T21:09:38.713Z,99030.59
2024-01-18T21:12:05.809Z,99035.34
2024-01-18T21:14:32.602Z,99041.69
2024-01-18T21:17:00.261Z,99047.91
2024-01-18T21:19:27.310Z,99059.22
2024-01-18T21:21:54.083Z,99064.06
2024-01-18T21:24:20.652Z,99066.13
2024-01-18T21:26:47.321Z,99075.25
2024-01-18T21:29:13.937Z,99078.59
2024-01-18T21:31:40.506Z,99087.63
2024-01-18T21:34:07.515Z,99089.09
2024-01-18T21:36:37.390Z,99098.81
2024-01-18T21:39:04.834Z,99096.72
2024-01-18T21:41:31.658Z,99098.34
2024-01-18T21:43:58.266Z,99106.88
2024-01-18T21:46:24.957Z,99101.09
2024-01-18T21:48:51.886Z,99105.72
2024-01-18T21:51:19.862Z,99117.22
2024-01-18T21:53:47.094Z,99126.69
2024-01-18T21:56:13.768Z,99125.31
2024-01-18T21:58:42.418Z,99121.16
2024-01-18T22:01:09.373Z,99117.34
2024-01-18T22:03:37.574Z,99118.56
2024-01-18T22:06:04.500Z,99124.72
2024-01-18T22:08:31.164Z,99127.47
2024-01-18T22:10:57.805Z,99136.47
2024-01-18T22:13:24.278Z,99145.25
2024-01-18T22:15:53.101Z,99143.16
2024-01-18T22:18:19.660Z,99154.94
2024-01-18T22:20:46.330Z,99153.66
2024-01-18T22:23:12.946Z,99156.41
2024-01-18T22:25:39.450Z,99163.94
2024-01-18T22:28:06.589Z,99157.44
2024-01-18T22:30:33.119Z,99178.56
2024-01-18T22:32:59.696Z,99179.97
2024-01-18T22:35:26.663Z,99179.72
2024-01-18T22:37:53.478Z,99179.72
2024-01-18T22:40:20.716Z,99188.84
2024-01-18T22:42:47.266Z,99183.28
2024-01-18T22:45:15.123Z,99181.66
2024-01-18T22:47:41.771Z,99189.66
2024-01-18T22:50:09.810Z,99196.00
2024-01-18T22:52:36.660Z,99198.75
2024-01-18T22:55:03.620Z,99201.06
2024-01-18T22:57:30.133Z,99209.13
2024-01-18T22:59:56.737Z,99201.72
2024-01-18T23:02:23.284Z,99206.56
2024-01-18T23:04:49.798Z,99212.25
2024-01-18T23:07:26.236Z,99209.81
2024-01-18T23:09:52.735Z,99219.47
2024-01-18T23:12:19.214Z,99211.63
2024-01-18T23:14:45.831Z,99216.47
2024-01-18T23:17:12.351Z,99218.31
2024-01-18T23:19:38.858Z,99216.47
2024-01-18T23:22:05.384Z,99213.47
2024-01-18T23:24:31.879Z,99226.19
2024-01-18T23:26:58.376Z,99218.34
2024-01-18T23:29:24.981Z,99229.94
2024-01-18T23:31:51.597Z,99226.22
2024-01-18T23:34:18.140Z,99227.06
2024-01-18T23:36:44.946Z,99239.63
2024-01-18T23:39:14.098Z,99226.91
2024-01-18T23:41:41.155Z,99225.84
2024-01-18T23:44:09.846Z,99230.13
2024-01-18T23:46:38.183Z,99235.00
2024-01-18T23:49:06.141Z,99239.38
2024-01-18T23:51:33.312Z,99241.47
2024-01-18T23:53:59.823Z,99241.47
2024-01-18T23:56:26.407Z,99251.38
2024-01-18T23:58:52.940Z,99248.25
